Time;durP1;ratioP1;P1;durP2;ratioP2;P2;SDS_P1;SDS_P2;PMS_P1;PMS_P2;Temp;Humidity;BMP_temperature;BMP_pressure;BME280_temperature;BME280_humidity;BME280_pressure;Samples;Min_cycle;Max_cycle;Signal;HPM_P1;HPM_P2
2023/09/23 00:00:15;;;;;;;1.70;1.43;;;12.30;99.90;;;;;;5039658;28;20194;-83
2023/09/23 00:02:45;;;;;;;1.93;1.70;;;12.30;99.90;;;;;;5040480;28;20166;-83
2023/09/23 00:05:11;;;;;;;3.50;1.70;;;12.40;99.90;;;;;;5039787;28;20174;-83
2023/09/23 00:07:40;;;;;;;1.90;1.60;;;12.40;99.90;;;;;;5039946;28;20194;-82
2023/09/23 00:10:10;;;;;;;2.37;1.50;;;12.30;99.90;;;;;;5038801;28;20174;-82
2023/09/23 00:12:36;;;;;;;3.23;1.90;;;12.30;99.90;;;;;;5020445;28;20171;-84
2023/09/23 00:15:03;;;;;;;1.80;1.50;;;12.30;99.90;;;;;;5038050;28;20246;-82
2023/09/23 00:17:29;;;;;;;2.67;1.83;;;12.20;99.90;;;;;;5038447;28;20201;-83
2023/09/23 00:19:56;;;;;;;2.57;1.47;;;12.20;99.90;;;;;;5038559;28;20183;-83
2023/09/23 00:22:21;;;;;;;2.00;1.60;;;12.20;99.90;;;;;;5020429;28;20205;-83
2023/09/23 00:24:47;;;;;;;3.10;1.80;;;12.30;99.90;;;;;;5021157;28;20174;-82
2023/09/23 00:27:13;;;;;;;2.13;1.70;;;12.30;99.90;;;;;;5021434;28;20585;-83
2023/09/23 00:29:39;;;;;;;1.60;1.50;;;12.30;99.90;;;;;;5020644;28;20182;-82
2023/09/23 00:32:04;;;;;;;1.60;1.50;;;12.30;99.90;;;;;;5021879;28;20185;-82
2023/09/23 00:34:30;;;;;;;1.80;1.70;;;12.30;99.90;;;;;;5021187;28;20242;-82
2023/09/23 00:36:56;;;;;;;2.00;1.80;;;12.30;99.90;;;;;;5039461;28;20293;-82
2023/09/23 00:39:21;;;;;;;1.93;1.60;;;12.30;99.90;;;;;;5021037;28;20177;-82
2023/09/23 00:41:47;;;;;;;4.17;1.77;;;12.30;99.90;;;;;;5039423;28;20178;-83
2023/09/23 00:44:13;;;;;;;2.67;1.60;;;12.30;99.90;;;;;;5020581;28;20676;-84
2023/09/23 00:46:40;;;;;;;1.83;1.50;;;12.30;99.90;;;;;;5038782;28;20201;-83
2023/09/23 00:49:07;;;;;;;1.97;1.40;;;12.30;99.90;;;;;;5039563;28;20170;-83
2023/09/23 00:51:33;;;;;;;2.37;1.80;;;12.30;99.90;;;;;;5039268;28;20660;-83
2023/09/23 00:54:01;;;;;;;2.03;1.50;;;12.30;99.90;;;;;;5039301;28;20224;-82
2023/09/23 00:56:30;;;;;;;1.50;1.40;;;12.40;99.90;;;;;;5020769;28;20190;-82
2023/09/23 00:58:58;;;;;;;2.23;1.50;;;12.30;99.90;;;;;;5039341;28;20174;-82
2023/09/23 01:01:23;;;;;;;2.27;1.73;;;12.30;99.90;;;;;;5038230;28;20166;-82
2023/09/23 01:03:49;;;;;;;1.53;1.43;;;12.20;99.90;;;;;;5038071;28;20182;-82
2023/09/23 01:06:19;;;;;;;1.67;1.50;;;12.20;99.90;;;;;;5038589;28;20217;-82
2023/09/23 01:08:46;;;;;;;2.27;1.50;;;12.20;99.90;;;;;;5020214;28;20174;-82
2023/09/23 01:11:12;;;;;;;1.50;1.40;;;12.20;99.90;;;;;;5019864;28;20180;-82
2023/09/23 01:13:38;;;;;;;2.03;1.57;;;12.20;99.90;;;;;;5020100;28;20191;-83
2023/09/23 01:16:09;;;;;;;2.03;1.37;;;12.10;99.90;;;;;;5038432;28;20182;-83
2023/09/23 01:18:35;;;;;;;1.70;1.30;;;12.10;99.90;;;;;;5019733;28;20174;-82
2023/09/23 01:21:02;;;;;;;2.00;1.43;;;12.10;99.90;;;;;;5037688;28;20249;-82
2023/09/23 01:23:28;;;;;;;1.93;1.40;;;12.10;99.90;;;;;;5020215;28;20179;-83
2023/09/23 01:25:53;;;;;;;2.33;1.40;;;12.10;99.90;;;;;;5020126;28;20184;-82
2023/09/23 01:28:19;;;;;;;2.23;1.60;;;12.10;99.90;;;;;;5038308;28;20655;-82
2023/09/23 01:30:45;;;;;;;1.47;1.37;;;12.10;99.90;;;;;;5038018;28;20205;-83
2023/09/23 01:33:13;;;;;;;2.60;1.60;;;12.10;99.90;;;;;;5020073;28;20198;-83
2023/09/23 01:35:40;;;;;;;1.77;1.67;;;12.10;99.90;;;;;;5019574;28;20198;-83
2023/09/23 01:38:05;;;;;;;1.70;1.40;;;12.10;99.90;;;;;;5019684;28;20241;-82
2023/09/23 01:40:32;;;;;;;1.90;1.60;;;12.10;99.90;;;;;;5019914;28;20186;-82
2023/09/23 01:42:58;;;;;;;1.93;1.60;;;12.10;99.90;;;;;;5037525;28;20186;-82
2023/09/23 01:45:28;;;;;;;1.93;1.60;;;12.10;99.90;;;;;;5037183;28;20185;-83
2023/09/23 01:47:56;;;;;;;1.70;1.50;;;12.10;99.90;;;;;;5019424;28;20225;-82
2023/09/23 01:50:26;;;;;;;1.83;1.70;;;12.00;99.90;;;;;;5037870;28;20213;-82
2023/09/23 01:52:52;;;;;;;1.60;1.50;;;12.00;99.90;;;;;;5019420;28;20202;-82
2023/09/23 01:55:18;;;;;;;2.50;1.87;;;12.10;99.90;;;;;;5038411;28;20173;-82
2023/09/23 01:57:45;;;;;;;2.50;2.13;;;12.10;99.90;;;;;;5037381;28;20212;-82
2023/09/23 02:00:17;;;;;;;2.63;1.37;;;12.10;99.90;;;;;;5037374;28;20233;-82
2023/09/23 02:02:45;;;;;;;1.80;1.20;;;12.10;99.90;;;;;;5037078;28;20170;-83
2023/09/23 02:05:12;;;;;;;1.20;1.10;;;12.20;99.90;;;;;;5037397;28;20198;-82
2023/09/23 02:07:39;;;;;;;1.20;1.10;;;12.20;99.90;;;;;;5019257;28;20186;-84
2023/09/23 02:10:08;;;;;;;1.73;1.10;;;12.20;99.90;;;;;;5038110;28;20549;-82
2023/09/23 02:12:34;;;;;;;1.20;1.10;;;12.20;99.90;;;;;;5037004;28;20676;-82
2023/09/23 02:15:00;;;;;;;1.37;1.00;;;12.20;99.90;;;;;;5037823;28;20264;-82
2023/09/23 02:17:25;;;;;;;1.10;1.00;;;12.10;99.90;;;;;;5037250;28;20201;-83
2023/09/23 02:19:53;;;;;;;1.13;1.03;;;12.10;99.90;;;;;;5019901;28;20606;-82
2023/09/23 02:22:19;;;;;;;1.53;1.00;;;12.10;99.90;;;;;;5018690;28;20555;-82
2023/09/23 02:24:46;;;;;;;1.80;1.10;;;12.10;99.90;;;;;;5037157;28;20182;-82
2023/09/23 02:27:12;;;;;;;0.90;0.90;;;12.10;99.90;;;;;;5018143;28;20277;-82
2023/09/23 02:29:40;;;;;;;0.83;0.83;;;12.10;99.90;;;;;;5036097;28;20674;-82
2023/09/23 02:32:06;;;;;;;1.20;0.93;;;11.90;99.90;;;;;;5018533;28;20609;-82
2023/09/23 02:34:32;;;;;;;1.53;1.00;;;12.00;99.90;;;;;;5018842;28;20240;-82
2023/09/23 02:36:57;;;;;;;0.97;0.97;;;12.00;99.90;;;;;;5037298;28;20245;-82
2023/09/23 02:39:23;;;;;;;1.57;0.90;;;12.00;99.90;;;;;;5019476;28;20179;-82
2023/09/23 02:41:50;;;;;;;0.90;0.90;;;12.00;99.90;;;;;;5018936;28;20195;-82
2023/09/23 02:44:22;;;;;;;1.47;1.10;;;11.90;99.90;;;;;;5037051;28;20186;-83
2023/09/23 02:46:54;;;;;;;1.20;1.10;;;11.90;99.90;;;;;;5036683;28;20229;-82
2023/09/23 02:49:20;;;;;;;1.30;1.10;;;11.90;99.90;;;;;;5018340;28;20193;-82
2023/09/23 02:51:48;;;;;;;1.27;1.13;;;11.80;99.90;;;;;;5018681;28;20186;-82
2023/09/23 02:54:15;;;;;;;1.30;1.10;;;11.80;99.90;;;;;;5018448;28;20194;-83
2023/09/23 02:56:41;;;;;;;1.13;1.10;;;11.70;99.90;;;;;;5019190;28;20190;-83
2023/09/23 02:59:21;;;;;;;1.30;1.20;;;11.80;99.90;;;;;;5018378;28;20653;-82
2023/09/23 03:01:51;;;;;;;1.20;1.10;;;11.80;99.90;;;;;;5018517;28;20178;-82
2023/09/23 03:04:19;;;;;;;1.20;1.10;;;11.80;99.90;;;;;;5036549;28;20173;-82
2023/09/23 03:07:01;;;;;;;0.90;0.90;;;11.80;99.90;;;;;;5018328;28;20252;-83
2023/09/23 03:09:32;;;;;;;1.27;1.10;;;11.80;99.90;;;;;;5018319;28;20182;-83
2023/09/23 03:12:00;;;;;;;1.00;0.90;;;11.80;99.90;;;;;;5035972;28;20182;-83
2023/09/23 03:14:35;;;;;;;1.20;1.10;;;11.80;99.90;;;;;;5018167;28;20251;-82
2023/09/23 03:17:01;;;;;;;1.20;1.10;;;11.80;99.90;;;;;;5036474;28;20190;-82
2023/09/23 03:19:27;;;;;;;2.90;1.30;;;11.80;99.90;;;;;;5036273;28;20166;-82
2023/09/23 03:21:57;;;;;;;1.40;1.30;;;11.80;99.90;;;;;;5017956;28;20265;-82
2023/09/23 03:24:25;;;;;;;1.30;1.20;;;11.70;99.90;;;;;;5020284;28;20261;-83
2023/09/23 03:26:55;;;;;;;1.20;1.10;;;11.70;99.90;;;;;;5040399;28;20205;-82
2023/09/23 03:29:22;;;;;;;1.50;1.20;;;11.70;99.90;;;;;;5039642;28;20174;-82
2023/09/23 03:31:48;;;;;;;1.10;1.00;;;11.70;99.90;;;;;;5039947;28;20177;-84
2023/09/23 03:34:14;;;;;;;1.20;1.10;;;11.70;99.90;;;;;;5022310;28;20215;-84
2023/09/23 03:36:41;;;;;;;1.63;1.27;;;11.70;99.90;;;;;;5040407;28;20208;-83
2023/09/23 03:39:08;;;;;;;1.50;1.30;;;11.70;99.90;;;;;;5040441;28;20175;-83
2023/09/23 03:41:37;;;;;;;1.20;1.10;;;11.70;99.90;;;;;;5040155;28;20174;-82
2023/09/23 03:44:03;;;;;;;1.27;1.10;;;11.70;99.90;;;;;;5039658;28;20240;-83
2023/09/23 03:46:29;;;;;;;2.57;1.20;;;11.70;99.90;;;;;;5021368;28;20203;-82
2023/09/23 03:48:54;;;;;;;1.37;1.20;;;11.80;99.90;;;;;;5022651;28;20257;-82
2023/09/23 03:51:20;;;;;;;1.53;1.20;;;11.80;99.90;;;;;;5022725;28;20174;-82
2023/09/23 03:53:51;;;;;;;1.57;1.47;;;11.80;99.90;;;;;;5022221;28;20220;-82
2023/09/23 03:56:17;;;;;;;2.10;1.37;;;11.80;99.90;;;;;;5039959;28;20194;-82
2023/09/23 03:58:43;;;;;;;1.83;1.30;;;11.70;99.90;;;;;;5040145;28;20809;-82
2023/09/23 04:01:13;;;;;;;2.17;1.50;;;11.70;99.90;;;;;;5021489;28;20197;-83
2023/09/23 04:03:42;;;;;;;1.67;1.30;;;11.70;99.90;;;;;;5040006;28;20171;-83
2023/09/23 04:06:07;;;;;;;2.70;1.40;;;11.60;99.90;;;;;;5021466;28;20178;-83
2023/09/23 04:08:33;;;;;;;1.47;1.37;;;11.70;99.90;;;;;;5021600;28;20558;-82
2023/09/23 04:11:04;;;;;;;2.23;1.63;;;11.70;99.90;;;;;;5020910;28;20185;-82
2023/09/23 04:13:30;;;;;;;1.40;1.30;;;11.70;99.90;;;;;;5021600;28;20581;-83
2023/09/23 04:16:00;;;;;;;2.00;1.70;;;11.80;99.90;;;;;;5022024;28;20178;-82
2023/09/23 04:18:27;;;;;;;2.80;1.70;;;11.80;99.90;;;;;;5021264;28;20178;-83
2023/09/23 04:20:53;;;;;;;1.60;1.40;;;11.70;99.90;;;;;;5038901;28;20166;-83
2023/09/23 04:23:19;;;;;;;1.80;1.70;;;11.70;99.90;;;;;;5039001;28;20184;-82
2023/09/23 04:25:45;;;;;;;1.70;1.60;;;11.60;99.90;;;;;;5020786;28;20177;-83
2023/09/23 04:28:10;;;;;;;2.20;2.00;;;11.60;99.90;;;;;;5020471;28;20760;-82
2023/09/23 04:30:36;;;;;;;1.77;1.67;;;11.50;99.90;;;;;;5039370;28;20240;-85
2023/09/23 04:33:02;;;;;;;4.13;1.90;;;11.50;99.90;;;;;;5039479;28;20258;-82
2023/09/23 04:35:29;;;;;;;2.63;2.03;;;11.50;99.90;;;;;;5019819;28;20186;-82
2023/09/23 04:37:55;;;;;;;1.90;1.70;;;11.40;99.90;;;;;;5020747;28;20224;-82
2023/09/23 04:40:20;;;;;;;3.03;1.90;;;11.50;99.90;;;;;;5038933;28;20264;-83
2023/09/23 04:42:48;;;;;;;2.00;1.77;;;11.40;99.90;;;;;;5039573;28;20641;-83
2023/09/23 04:45:14;;;;;;;2.23;2.00;;;11.50;99.90;;;;;;5039013;28;20174;-83
2023/09/23 04:47:40;;;;;;;2.20;2.00;;;11.50;99.90;;;;;;5038521;28;20204;-82
2023/09/23 04:50:08;;;;;;;2.57;2.10;;;11.40;99.90;;;;;;5020712;28;20174;-82
2023/09/23 04:52:34;;;;;;;2.57;2.20;;;11.40;99.90;;;;;;5038499;28;20179;-82
2023/09/23 04:55:00;;;;;;;2.20;2.00;;;11.40;99.90;;;;;;5038833;28;20182;-84
2023/09/23 04:57:26;;;;;;;2.70;2.03;;;11.40;99.90;;;;;;5038925;28;20217;-84
2023/09/23 04:59:52;;;;;;;2.57;2.10;;;11.30;99.90;;;;;;5039399;28;20208;-83
2023/09/23 05:02:18;;;;;;;2.83;2.17;;;11.20;99.90;;;;;;5038573;28;20182;-82
2023/09/23 05:04:48;;;;;;;2.73;2.40;;;11.20;99.90;;;;;;5038482;28;20327;-82
2023/09/23 05:07:14;;;;;;;3.33;2.17;;;11.10;99.90;;;;;;5038113;28;20182;-82
2023/09/23 05:09:41;;;;;;;2.50;2.23;;;11.10;99.90;;;;;;5020056;28;20188;-82
2023/09/23 05:12:08;;;;;;;2.50;2.30;;;11.10;99.90;;;;;;5038143;28;20180;-83
2023/09/23 05:14:34;;;;;;;3.60;2.37;;;11.10;99.90;;;;;;5020583;28;20625;-83
2023/09/23 05:16:59;;;;;;;2.93;2.20;;;11.00;99.90;;;;;;5038777;28;20190;-83
2023/09/23 05:19:27;;;;;;;2.37;2.10;;;11.10;99.90;;;;;;5020467;28;20170;-84
2023/09/23 05:21:53;;;;;;;2.43;2.23;;;11.00;99.90;;;;;;5020579;28;20183;-83
2023/09/23 05:24:19;;;;;;;2.60;2.40;;;11.00;99.90;;;;;;5038681;28;20583;-83
2023/09/23 05:26:47;;;;;;;2.60;2.40;;;11.00;99.90;;;;;;5020091;28;20229;-83
2023/09/23 05:29:13;;;;;;;3.93;2.30;;;11.00;99.90;;;;;;5019689;28;20330;-83
2023/09/23 05:31:38;;;;;;;2.87;2.23;;;11.00;99.90;;;;;;5019508;28;20212;-83
2023/09/23 05:34:04;;;;;;;3.20;2.10;;;11.00;99.90;;;;;;5037000;28;20201;-83
2023/09/23 05:36:31;;;;;;;2.50;2.20;;;11.00;99.90;;;;;;5018554;28;20214;-83
2023/09/23 05:38:57;;;;;;;3.03;2.20;;;11.00;99.90;;;;;;5036537;28;20174;-83
2023/09/23 05:41:23;;;;;;;2.47;2.13;;;11.00;99.90;;;;;;5018579;28;20197;-83
2023/09/23 05:43:51;;;;;;;2.87;2.10;;;11.10;99.90;;;;;;5019214;28;20225;-83
2023/09/23 05:46:18;;;;;;;3.33;2.10;;;11.10;99.90;;;;;;5036715;28;20198;-83
2023/09/23 05:48:44;;;;;;;2.47;2.20;;;11.10;99.90;;;;;;5037154;28;20239;-83
2023/09/23 05:51:10;;;;;;;2.53;2.23;;;11.10;99.90;;;;;;5018189;28;20174;-83
2023/09/23 05:53:35;;;;;;;2.30;2.10;;;11.20;99.90;;;;;;5018592;28;20280;-83
2023/09/23 05:56:01;;;;;;;3.37;2.37;;;11.20;99.90;;;;;;5036603;28;20174;-83
2023/09/23 05:58:27;;;;;;;3.30;2.17;;;11.20;99.90;;;;;;5020000;28;20166;-83
2023/09/23 06:00:53;;;;;;;2.53;2.20;;;11.30;99.90;;;;;;5018728;28;20174;-83
2023/09/23 06:03:18;;;;;;;2.50;2.30;;;11.30;99.90;;;;;;5018886;28;20172;-83
2023/09/23 06:05:44;;;;;;;2.40;2.20;;;11.30;99.90;;;;;;5018723;28;20213;-83
2023/09/23 06:08:12;;;;;;;2.40;2.20;;;11.30;99.90;;;;;;5018496;28;20206;-83
2023/09/23 06:10:39;;;;;;;2.50;2.27;;;11.30;99.90;;;;;;5018184;28;20662;-82
2023/09/23 06:13:09;;;;;;;3.13;2.33;;;11.30;99.90;;;;;;5035986;28;20194;-84
2023/09/23 06:15:35;;;;;;;3.50;2.40;;;11.30;99.90;;;;;;5036441;28;20540;-83
2023/09/23 06:18:01;;;;;;;3.47;2.33;;;11.30;99.90;;;;;;5018303;28;20690;-84
2023/09/23 06:20:26;;;;;;;2.80;2.60;;;11.30;99.90;;;;;;5036370;28;20182;-83
2023/09/23 06:22:52;;;;;;;3.93;2.30;;;11.40;99.90;;;;;;5036472;28;20174;-83
2023/09/23 06:25:19;;;;;;;3.20;2.20;;;11.40;99.90;;;;;;5036474;28;20265;-84
2023/09/23 06:27:44;;;;;;;3.43;2.47;;;11.50;99.90;;;;;;5036363;28;20230;-84
2023/09/23 06:30:10;;;;;;;3.77;2.20;;;11.50;99.90;;;;;;5018715;28;20566;-84
2023/09/23 06:32:35;;;;;;;3.00;2.23;;;11.50;99.90;;;;;;5036048;28;20177;-83
2023/09/23 06:35:02;;;;;;;2.47;2.20;;;11.50;99.90;;;;;;5018386;28;20220;-83
2023/09/23 06:37:28;;;;;;;2.83;2.30;;;11.50;99.90;;;;;;5041834;23;20308;-89
2023/09/23 06:39:53;;;;;;;2.67;2.00;;;11.50;99.90;;;;;;5052566;28;20203;-88
2023/09/23 06:42:19;;;;;;;3.73;2.13;;;11.60;99.90;;;;;;5052153;28;20193;-88
2023/09/23 06:44:45;;;;;;;2.77;1.97;;;11.60;99.90;;;;;;5052669;28;20190;-88
2023/09/23 06:47:11;;;;;;;3.13;2.07;;;11.60;99.90;;;;;;5053128;28;20193;-89
2023/09/23 06:49:37;;;;;;;3.13;2.30;;;11.70;99.90;;;;;;5053714;28;20696;-89
2023/09/23 06:52:03;;;;;;;3.63;2.20;;;11.70;99.90;;;;;;5052417;28;20180;-89
2023/09/23 06:54:28;;;;;;;4.17;2.27;;;11.70;99.90;;;;;;5053816;28;20256;-89
2023/09/23 06:56:56;;;;;;;2.30;2.00;;;11.70;99.90;;;;;;5052723;28;20243;-89
2023/09/23 06:59:22;;;;;;;3.20;1.90;;;11.70;99.90;;;;;;5051558;28;20257;-89
2023/09/23 07:01:48;;;;;;;4.40;2.17;;;11.70;99.90;;;;;;5053770;28;20197;-88
2023/09/23 07:04:14;;;;;;;2.33;2.07;;;11.70;99.90;;;;;;5053706;28;20176;-90
2023/09/23 07:06:39;;;;;;;2.43;1.73;;;11.70;99.90;;;;;;5053460;28;20198;-89
2023/09/23 07:09:05;;;;;;;2.60;2.30;;;11.70;99.90;;;;;;5054006;28;20181;-89
2023/09/23 07:11:31;;;;;;;3.90;1.77;;;11.70;99.90;;;;;;5053566;28;20170;-88
2023/09/23 07:13:58;;;;;;;2.37;2.00;;;11.80;99.90;;;;;;5053087;28;20197;-89
2023/09/23 07:16:26;;;;;;;3.13;2.07;;;11.80;99.90;;;;;;5054008;28;20180;-89
2023/09/23 07:18:52;;;;;;;2.97;2.20;;;11.80;99.90;;;;;;5054109;28;20162;-88
2023/09/23 07:21:18;;;;;;;2.97;2.13;;;11.80;99.90;;;;;;5052073;28;20185;-89
2023/09/23 07:23:43;;;;;;;3.20;2.40;;;11.80;99.90;;;;;;5053849;28;20170;-88
2023/09/23 07:26:09;;;;;;;3.50;2.10;;;11.80;99.90;;;;;;5051827;28;20205;-89
2023/09/23 07:28:34;;;;;;;2.90;2.40;;;11.90;99.90;;;;;;5053292;28;20221;-89
2023/09/23 07:31:01;;;;;;;3.70;2.30;;;11.90;99.90;;;;;;5054583;28;20257;-89
2023/09/23 07:33:26;;;;;;;3.57;2.10;;;11.90;99.90;;;;;;5053251;28;20201;-89
2023/09/23 07:35:53;;;;;;;4.97;2.10;;;12.00;99.90;;;;;;5052661;28;20193;-89
2023/09/23 07:38:19;;;;;;;3.07;2.40;;;12.00;99.90;;;;;;5054576;28;20209;-88
2023/09/23 07:40:45;;;;;;;2.87;2.10;;;12.00;99.90;;;;;;5052662;28;20165;-88
2023/09/23 07:43:10;;;;;;;3.07;2.40;;;11.90;99.90;;;;;;5053038;28;20242;-89
2023/09/23 07:45:36;;;;;;;2.60;2.40;;;11.90;99.90;;;;;;5053034;28;20173;-89
2023/09/23 07:48:02;;;;;;;2.40;2.20;;;11.90;99.90;;;;;;5051864;28;20248;-89
2023/09/23 07:50:28;;;;;;;4.20;2.60;;;11.90;99.90;;;;;;5051965;28;20177;-88
2023/09/23 07:52:53;;;;;;;2.53;2.30;;;11.90;99.90;;;;;;5052906;28;20257;-89
2023/09/23 07:55:19;;;;;;;3.63;2.43;;;11.90;99.90;;;;;;5051587;28;20169;-88
2023/09/23 07:57:44;;;;;;;2.97;2.20;;;12.00;99.90;;;;;;5053025;28;20197;-88
2023/09/23 08:00:11;;;;;;;5.60;2.57;;;12.00;99.90;;;;;;5052471;28;20166;-89
2023/09/23 08:02:36;;;;;;;3.23;2.50;;;12.00;99.90;;;;;;5053375;28;20707;-89
2023/09/23 08:05:03;;;;;;;2.60;2.40;;;12.00;99.90;;;;;;5051950;28;20180;-88
2023/09/23 08:07:30;;;;;;;4.87;2.77;;;12.00;99.90;;;;;;5051522;28;20204;-89
2023/09/23 08:09:56;;;;;;;2.73;2.20;;;12.00;99.90;;;;;;5054446;28;20176;-89
2023/09/23 08:12:22;;;;;;;3.07;2.20;;;12.00;99.90;;;;;;5054758;28;20197;-88
2023/09/23 08:14:48;;;;;;;2.53;2.20;;;12.00;99.90;;;;;;5056860;28;20197;-89
2023/09/23 08:17:14;;;;;;;2.83;2.37;;;12.00;99.90;;;;;;5056199;28;20194;-88
2023/09/23 08:19:40;;;;;;;2.63;2.17;;;12.00;99.90;;;;;;5055327;28;20654;-89
2023/09/23 08:22:06;;;;;;;3.63;2.17;;;12.00;99.90;;;;;;5054882;28;20171;-88
2023/09/23 08:24:32;;;;;;;3.07;2.10;;;12.00;99.90;;;;;;5054868;28;20180;-89
2023/09/23 08:26:58;;;;;;;2.50;2.30;;;12.10;99.90;;;;;;5056195;28;20253;-89
2023/09/23 08:29:24;;;;;;;3.60;2.30;;;12.10;99.90;;;;;;5055752;28;20169;-89
2023/09/23 08:31:50;;;;;;;3.67;2.40;;;12.10;99.90;;;;;;5056649;28;20177;-89
2023/09/23 08:34:17;;;;;;;2.67;2.27;;;12.00;99.90;;;;;;5054689;28;20231;-89
2023/09/23 08:36:42;;;;;;;2.57;2.17;;;12.10;99.90;;;;;;5055462;28;20189;-89
2023/09/23 08:39:09;;;;;;;2.37;2.17;;;12.20;99.90;;;;;;5055464;28;20183;-89
2023/09/23 08:41:36;;;;;;;2.67;2.07;;;12.20;99.90;;;;;;5054303;28;20169;-89
2023/09/23 08:44:05;;;;;;;2.53;2.33;;;12.10;99.90;;;;;;5054515;28;20201;-89
2023/09/23 08:46:32;;;;;;;2.83;2.20;;;12.20;99.90;;;;;;5055965;28;20295;-89
2023/09/23 08:49:01;;;;;;;2.63;2.43;;;12.30;99.90;;;;;;5056119;28;20177;-88
2023/09/23 08:51:27;;;;;;;2.83;2.37;;;12.30;99.90;;;;;;5055380;28;20177;-89
2023/09/23 08:53:54;;;;;;;5.03;2.50;;;12.50;99.90;;;;;;5056095;28;20193;-89
2023/09/23 08:56:23;;;;;;;3.47;2.40;;;12.50;99.90;;;;;;5053735;28;20174;-89
2023/09/23 08:58:49;;;;;;;3.37;2.40;;;12.50;99.90;;;;;;5054292;28;20211;-89
2023/09/23 09:01:16;;;;;;;2.97;2.37;;;12.50;99.90;;;;;;5053849;28;20650;-89
2023/09/23 09:03:42;;;;;;;3.77;2.37;;;12.60;99.90;;;;;;5054117;28;20185;-89
2023/09/23 09:06:27;;;;;;;4.43;2.60;;;12.60;99.90;;;;;;5057417;28;20169;-89
2023/09/23 09:08:53;;;;;;;2.63;2.10;;;12.50;99.90;;;;;;5055628;28;20200;-89
2023/09/23 09:11:21;;;;;;;2.43;2.23;;;12.60;99.90;;;;;;5056476;28;20194;-89
2023/09/23 09:13:47;;;;;;;3.83;2.30;;;12.60;99.90;;;;;;5053717;28;20207;-88
2023/09/23 09:16:13;;;;;;;4.03;2.00;;;12.60;99.90;;;;;;5053895;28;20261;-88
2023/09/23 09:18:38;;;;;;;2.67;2.00;;;12.50;99.90;;;;;;5053478;28;20193;-88
2023/09/23 09:21:08;;;;;;;2.50;2.03;;;12.50;99.90;;;;;;5052273;28;20173;-88
2023/09/23 09:23:36;;;;;;;2.27;2.10;;;12.40;99.90;;;;;;5055417;28;20173;-90
2023/09/23 09:26:02;;;;;;;2.70;2.10;;;12.40;99.90;;;;;;5053424;28;20178;-89
2023/09/23 09:28:30;;;;;;;2.60;2.03;;;12.50;99.90;;;;;;5055107;28;20247;-89
2023/09/23 09:30:56;;;;;;;2.43;1.93;;;12.50;99.90;;;;;;5053542;28;20182;-89
2023/09/23 09:33:27;;;;;;;2.63;1.80;;;12.60;99.90;;;;;;5054830;28;20197;-89
2023/09/23 09:35:56;;;;;;;3.37;2.00;;;12.80;62.90;;;;;;5053875;28;20261;-88
2023/09/23 09:38:25;;;;;;;1.93;1.83;;;12.90;99.90;;;;;;5053791;28;20205;-88
2023/09/23 09:40:56;;;;;;;4.90;1.97;;;13.00;99.60;;;;;;5055005;28;20178;-89
2023/09/23 09:43:23;;;;;;;2.60;1.90;;;13.10;99.90;;;;;;5053184;28;20265;-89
2023/09/23 09:45:49;;;;;;;2.30;2.10;;;13.20;99.90;;;;;;5054959;28;20177;-89
2023/09/23 09:48:15;;;;;;;2.80;2.33;;;13.20;99.90;;;;;;5052772;28;20190;-89
2023/09/23 09:50:43;;;;;;;3.60;2.13;;;13.30;99.90;;;;;;5053612;28;20182;-89
2023/09/23 09:53:08;;;;;;;2.23;1.80;;;13.30;1.00;;;;;;5054957;28;20210;-89
2023/09/23 09:55:34;;;;;;;2.10;1.90;;;13.30;3.60;;;;;;5055339;28;20173;-89
2023/09/23 09:58:01;;;;;;;5.90;1.83;;;13.20;99.90;;;;;;5053219;28;20194;-89
2023/09/23 10:00:27;;;;;;;1.97;1.80;;;13.20;1.00;;;;;;5054438;28;20166;-89
2023/09/23 10:03:01;;;;;;;3.20;2.00;;;13.30;1.00;;;;;;5052872;28;20193;-89
2023/09/23 10:05:46;;;;;;;2.30;1.80;;;13.40;64.70;;;;;;5052676;28;20188;-89
2023/09/23 10:08:15;;;;;;;1.97;1.60;;;13.50;1.00;;;;;;5052547;28;20199;-89
2023/09/23 10:10:49;;;;;;;3.33;1.60;;;13.60;1.00;;;;;;5055962;28;20173;-89
2023/09/23 10:13:22;;;;;;;2.67;1.70;;;13.70;1.00;;;;;;5056039;28;20204;-88
2023/09/23 10:15:48;;;;;;;2.30;1.50;;;13.70;13.50;;;;;;5055941;28;20220;-88
2023/09/23 10:18:16;;;;;;;3.23;1.70;;;13.60;1.00;;;;;;5052920;28;20604;-89
2023/09/23 10:20:51;;;;;;;1.80;1.70;;;13.60;1.00;;;;;;5052663;28;20173;-88
2023/09/23 10:23:19;;;;;;;1.60;1.50;;;13.60;1.00;;;;;;5053567;28;20180;-88
2023/09/23 10:25:46;;;;;;;1.60;1.50;;;13.70;1.00;;;;;;5052183;28;20681;-88
2023/09/23 10:28:22;;;;;;;2.20;1.60;;;13.80;1.00;;;;;;5053827;28;20277;-89
2023/09/23 10:31:02;;;;;;;2.20;1.63;;;13.80;1.00;;;;;;5051852;28;20195;-89
2023/09/23 10:33:30;;;;;;;2.67;1.87;;;13.80;1.00;;;;;;5053860;28;20185;-89
2023/09/23 10:35:56;;;;;;;2.00;1.80;;;13.60;1.00;;;;;;5054456;28;20162;-88
2023/09/23 10:38:28;;;;;;;2.40;1.70;;;13.50;1.00;;;;;;5051801;28;20296;-88
2023/09/23 10:40:54;;;;;;;2.43;1.70;;;13.50;1.00;;;;;;5053538;28;20201;-89
2023/09/23 10:43:24;;;;;;;3.20;1.57;;;13.50;99.90;;;;;;5053192;28;20219;-89
2023/09/23 10:45:53;;;;;;;2.97;1.80;;;13.50;1.00;;;;;;5053010;28;20181;-89
2023/09/23 10:48:19;;;;;;;3.10;2.13;;;13.60;1.00;;;;;;5051623;28;20640;-88
2023/09/23 10:50:46;;;;;;;1.80;1.67;;;13.70;1.00;;;;;;5052872;28;20197;-89
2023/09/23 10:53:12;;;;;;;3.17;1.60;;;13.70;1.00;;;;;;5053780;28;20288;-88
2023/09/23 10:55:39;;;;;;;2.60;1.60;;;13.70;1.00;;;;;;5054705;28;20174;-89
2023/09/23 10:58:09;;;;;;;2.50;1.70;;;13.80;1.00;;;;;;5053767;28;20269;-89
2023/09/23 11:00:38;;;;;;;1.60;1.50;;;13.80;1.00;;;;;;5051635;28;20166;-89
2023/09/23 11:03:11;;;;;;;3.50;1.63;;;13.90;1.00;;;;;;5053063;28;20177;-89
2023/09/23 11:05:39;;;;;;;1.90;1.50;;;14.40;1.00;;;;;;5052406;28;20170;-88
2023/09/23 11:08:12;;;;;;;1.93;1.40;;;15.10;99.90;;;;;;5053478;28;20190;-88
2023/09/23 11:10:42;;;;;;;2.10;1.50;;;15.50;1.00;;;;;;5051669;28;20170;-89
2023/09/23 11:13:10;;;;;;;1.70;1.40;;;15.90;1.00;;;;;;5052835;28;20176;-88
2023/09/23 11:15:40;;;;;;;2.10;1.50;;;16.20;99.90;;;;;;5051156;28;20174;-90
2023/09/23 11:18:14;;;;;;;1.90;1.50;;;16.50;1.00;;;;;;5055679;28;20583;-89
2023/09/23 11:20:41;;;;;;;2.90;1.43;;;16.40;99.90;;;;;;5053705;28;20200;-89
2023/09/23 11:23:07;;;;;;;1.43;1.17;;;16.40;99.90;;;;;;5053837;28;20201;-89
2023/09/23 11:25:38;;;;;;;5.17;1.30;;;16.40;99.90;;;;;;5051007;28;20173;-89
2023/09/23 11:28:04;;;;;;;2.13;1.20;;;17.00;1.00;;;;;;5051557;28;20193;-89
2023/09/23 11:30:29;;;;;;;4.00;1.40;;;17.30;1.00;;;;;;5053164;28;20253;-86
2023/09/23 11:32:56;;;;;;;3.13;1.50;;;17.30;1.00;;;;;;5053260;28;20245;-90
2023/09/23 11:35:25;;;;;;;1.67;1.40;;;17.20;1.00;;;;;;5052603;28;20169;-89
2023/09/23 11:37:52;;;;;;;2.23;1.30;;;16.80;99.90;;;;;;5052904;28;20693;-89
2023/09/23 11:40:19;;;;;;;1.20;1.07;;;16.40;1.00;;;;;;5052216;28;20174;-89
2023/09/23 11:42:45;;;;;;;2.03;1.30;;;16.40;99.90;;;;;;5052249;28;20177;-88
2023/09/23 11:45:11;;;;;;;1.83;1.20;;;16.30;1.00;;;;;;5054279;28;20182;-89
2023/09/23 11:47:38;;;;;;;2.43;1.30;;;16.50;99.90;;;;;;5054531;28;20626;-88
2023/09/23 11:50:06;;;;;;;1.80;1.30;;;16.50;1.00;;;;;;5055539;28;20177;-89
2023/09/23 11:52:34;;;;;;;1.87;1.27;;;16.80;1.00;;;;;;5055898;28;20188;-89
2023/09/23 11:55:00;;;;;;;1.30;1.20;;;16.90;99.90;;;;;;5057838;28;20205;-89
2023/09/23 11:57:28;;;;;;;2.90;1.30;;;16.60;1.00;;;;;;5056833;28;20216;-89
2023/09/23 11:59:54;;;;;;;1.57;1.30;;;16.30;17.50;;;;;;5055297;28;20227;-89
2023/09/23 12:02:21;;;;;;;1.40;1.30;;;16.40;1.00;;;;;;5056585;28;20181;-88
2023/09/23 12:04:47;;;;;;;2.03;1.20;;;16.50;99.90;;;;;;5054749;28;20208;-88
2023/09/23 12:07:14;;;;;;;1.77;1.27;;;16.40;1.00;;;;;;5056725;28;20189;-89
2023/09/23 12:09:40;;;;;;;1.80;1.37;;;16.30;1.00;;;;;;5055556;28;20193;-89
2023/09/23 12:12:07;;;;;;;1.60;1.30;;;16.20;1.00;;;;;;5054323;28;20637;-89
2023/09/23 12:14:33;;;;;;;1.97;1.30;;;16.10;1.00;;;;;;5055799;28;20208;-89
2023/09/23 12:16:59;;;;;;;2.93;1.30;;;16.10;1.00;;;;;;5055721;28;20190;-89
2023/09/23 12:19:25;;;;;;;1.70;1.20;;;16.00;99.90;;;;;;5055732;28;20174;-89
2023/09/23 12:21:51;;;;;;;1.40;1.30;;;15.90;99.90;;;;;;5056149;28;20180;-89
2023/09/23 12:24:16;;;;;;;2.77;1.30;;;16.10;99.90;;;;;;5057873;28;20174;-89
2023/09/23 12:26:42;;;;;;;1.57;1.10;;;16.50;99.90;;;;;;5057097;28;20198;-89
2023/09/23 12:29:07;;;;;;;3.33;1.30;;;16.80;1.00;;;;;;5056034;28;20178;-89
2023/09/23 12:31:33;;;;;;;2.93;1.40;;;17.30;47.00;;;;;;5055281;28;20201;-90
2023/09/23 12:33:58;;;;;;;2.43;1.30;;;17.50;99.90;;;;;;5058833;28;20198;-89
2023/09/23 12:36:24;;;;;;;3.30;1.20;;;17.60;99.90;;;;;;5056128;28;20180;-89
2023/09/23 12:38:50;;;;;;;1.60;1.27;;;17.60;1.00;;;;;;5058236;28;20273;-89
2023/09/23 12:41:16;;;;;;;2.40;1.10;;;17.30;99.90;;;;;;5056238;28;20193;-88
2023/09/23 12:43:41;;;;;;;2.63;1.10;;;17.00;1.00;;;;;;5056285;28;20235;-88
2023/09/23 12:46:09;;;;;;;1.90;1.23;;;16.90;1.00;;;;;;5055439;28;20178;-89